createdAt,value
2023-04-18T09:16:06.479Z,3.60
2023-04-18T09:18:35.417Z,3.00
2023-04-18T09:21:18.721Z,3.60
2023-04-18T09:23:50.502Z,3.30
2023-04-18T09:26:34.150Z,2.80
2023-04-18T09:29:03.385Z,3.10
2023-04-18T09:31:33.062Z,3.00
2023-04-18T09:34:03.153Z,2.90
2023-04-18T09:36:32.404Z,3.00
2023-04-18T09:39:00.859Z,2.70
2023-04-18T09:41:31.092Z,2.90
2023-04-18T09:44:14.338Z,3.30
2023-04-18T09:46:47.435Z,2.80
2023-04-18T09:49:17.120Z,3.30
2023-04-18T09:51:46.413Z,3.30
2023-04-18T09:54:15.961Z,3.00
2023-04-18T09:56:44.977Z,3.10
2023-04-18T09:59:13.430Z,2.70
2023-04-18T10:01:41.878Z,3.20
2023-04-18T10:04:10.103Z,3.00
2023-04-18T10:06:40.059Z,2.80
2023-04-18T10:09:08.893Z,3.30
2023-04-18T10:11:37.122Z,2.70
2023-04-18T10:14:08.012Z,2.90
2023-04-18T10:16:36.541Z,3.00
2023-04-18T10:19:27.206Z,2.60
2023-04-18T10:21:56.784Z,3.00
2023-04-18T10:24:48.415Z,3.00
2023-04-18T10:27:17.077Z,3.40
2023-04-18T10:29:52.907Z,2.80
2023-04-18T10:32:24.929Z,2.90
2023-04-18T10:34:53.999Z,2.40
2023-04-18T10:37:22.216Z,3.20
2023-04-18T10:40:00.478Z,2.90
2023-04-18T10:42:47.734Z,3.40
2023-04-18T10:45:19.700Z,3.60
2023-04-18T10:47:48.586Z,3.20
2023-04-18T10:50:17.022Z,2.90
2023-04-18T10:52:45.188Z,2.80
2023-04-18T10:55:16.635Z,2.80
2023-04-18T10:57:48.711Z,2.60
2023-04-18T11:00:18.470Z,3.00
2023-04-18T11:02:52.091Z,3.10
2023-04-18T11:05:23.979Z,3.20
2023-04-18T11:07:52.765Z,3.70
2023-04-18T11:10:26.689Z,3.30
2023-04-18T11:12:55.527Z,3.50
2023-04-18T11:15:25.256Z,3.10
2023-04-18T11:18:00.867Z,3.20
2023-04-18T11:20:30.389Z,3.80
2023-04-18T11:22:59.962Z,3.50
2023-04-18T11:25:32.635Z,3.90
2023-04-18T11:28:02.383Z,3.80
2023-04-18T11:30:38.175Z,5.10
2023-04-18T11:33:11.488Z,4.50
2023-04-18T11:35:46.252Z,4.30
2023-04-18T11:38:15.227Z,4.60
2023-04-18T11:40:50.081Z,4.80
2023-04-18T11:43:22.953Z,4.50
2023-04-18T11:45:59.014Z,3.80
2023-04-18T11:48:45.409Z,3.70
2023-04-18T11:51:38.887Z,3.40
2023-04-18T11:54:28.296Z,3.60
2023-04-18T11:56:57.739Z,4.10
2023-04-18T11:59:26.333Z,4.40
2023-04-18T12:02:15.532Z,4.30
2023-04-18T12:04:58.576Z,4.20
2023-04-18T12:07:44.107Z,4.30
2023-04-18T12:10:29.588Z,4.40
2023-04-18T12:12:58.965Z,4.20
2023-04-18T12:15:28.716Z,3.90
2023-04-18T12:17:59.737Z,3.50
2023-04-18T12:20:46.364Z,3.90
2023-04-18T12:23:35.621Z,3.30
2023-04-18T12:26:05.807Z,3.40
2023-04-18T12:28:36.289Z,3.80
2023-04-18T12:31:07.785Z,4.20
2023-04-18T12:33:36.889Z,4.30
2023-04-18T12:36:06.168Z,5.70
2023-04-18T12:38:35.195Z,5.40
2023-04-18T12:41:03.743Z,5.20
2023-04-18T12:43:31.931Z,4.70
2023-04-18T12:46:00.117Z,4.80
2023-04-18T12:48:28.338Z,4.70
2023-04-18T12:50:56.509Z,5.30
2023-04-18T12:53:24.916Z,4.80
2023-04-18T12:55:53.029Z,5.20
2023-04-18T12:58:21.689Z,4.70
2023-04-18T13:00:50.253Z,5.10
2023-04-18T13:03:18.995Z,4.90
2023-04-18T13:05:47.460Z,5.50
2023-04-18T13:08:18.210Z,4.70
2023-04-18T13:10:48.684Z,4.50
2023-04-18T13:13:17.532Z,5.10
2023-04-18T13:15:45.976Z,4.70
2023-04-18T13:18:14.202Z,4.50
2023-04-18T13:20:42.600Z,4.60
2023-04-18T13:23:11.129Z,4.30
2023-04-18T13:25:40.085Z,4.40
2023-04-18T13:28:08.673Z,3.60
2023-04-18T13:30:36.811Z,3.60
2023-04-18T13:33:05.557Z,3.90
2023-04-18T13:35:33.763Z,3.40
2023-04-18T13:38:10.888Z,3.60
2023-04-18T13:40:39.112Z,3.70
2023-04-18T13:43:07.350Z,3.90
2023-04-18T13:45:35.730Z,4.60
2023-04-18T13:48:04.259Z,4.80
2023-04-18T13:50:32.512Z,4.90
2023-04-18T13:53:00.656Z,5.00
2023-04-18T13:55:29.007Z,5.80
2023-04-18T13:57:57.400Z,6.60
2023-04-18T14:00:25.725Z,7.00
2023-04-18T14:02:55.518Z,7.30
2023-04-18T14:05:23.909Z,6.60
2023-04-18T14:07:52.170Z,7.70
2023-04-18T14:10:21.859Z,8.10
2023-04-18T14:12:51.354Z,6.80
2023-04-18T14:15:19.615Z,5.60
2023-04-18T14:17:47.843Z,5.50
2023-04-18T14:20:19.335Z,5.90
2023-04-18T14:22:50.924Z,4.80
2023-04-18T14:25:20.744Z,4.50
2023-04-18T14:27:48.965Z,4.10
2023-04-18T14:30:19.588Z,4.40
2023-04-18T14:32:47.786Z,4.00
2023-04-18T14:35:16.118Z,3.60
2023-04-18T14:37:44.356Z,3.80
2023-04-18T14:40:12.568Z,3.40
2023-04-18T14:42:41.007Z,2.90
2023-04-18T14:45:11.323Z,3.00
2023-04-18T14:47:43.014Z,3.30
2023-04-18T14:50:12.141Z,3.30
2023-04-18T14:52:41.186Z,3.10
2023-04-18T14:55:09.850Z,2.80
2023-04-18T14:57:39.002Z,2.80
2023-04-18T15:00:11.350Z,3.10
2023-04-18T15:02:40.332Z,3.10
2023-04-18T15:05:10.284Z,3.00
2023-04-18T15:07:39.005Z,2.80
2023-04-18T15:10:18.792Z,3.30
2023-04-18T15:12:55.645Z,3.40
2023-04-18T15:15:25.422Z,3.40
2023-04-18T15:17:54.556Z,3.50
2023-04-18T15:20:26.679Z,3.40
2023-04-18T15:22:56.930Z,3.90
2023-04-18T15:25:26.340Z,3.80
2023-04-18T15:27:54.688Z,3.30
2023-04-18T15:30:23.262Z,3.60
2023-04-18T15:32:52.355Z,3.60
2023-04-18T15:35:21.134Z,4.10
2023-04-18T15:37:49.474Z,3.90
2023-04-18T15:40:18.528Z,3.30
2023-04-18T15:42:49.520Z,3.40
2023-04-18T15:45:17.820Z,3.80
2023-04-18T15:47:46.253Z,7.20
2023-04-18T15:50:16.505Z,7.30
2023-04-18T15:52:44.949Z,7.50
2023-04-18T15:55:13.477Z,9.60
2023-04-18T15:57:41.963Z,10.00
2023-04-18T16:00:17.779Z,7.70
2023-04-18T16:02:46.674Z,5.80
2023-04-18T16:05:15.476Z,5.10
2023-04-18T16:07:44.098Z,4.00
2023-04-18T16:10:13.001Z,4.10
2023-04-18T16:12:41.876Z,5.00
2023-04-18T16:15:10.627Z,6.80
2023-04-18T16:17:38.980Z,6.70
2023-04-18T16:20:09.247Z,8.70
2023-04-18T16:22:37.992Z,10.80
2023-04-18T16:25:06.885Z,13.90
2023-04-18T16:27:35.487Z,27.10
2023-04-18T16:30:04.117Z,53.40
2023-04-18T16:32:33.349Z,39.00
2023-04-18T16:35:01.880Z,52.50
2023-04-18T16:37:31.044Z,28.10
2023-04-18T16:39:59.382Z,13.50
2023-04-18T16:42:27.588Z,10.80
2023-04-18T16:44:55.906Z,12.90
2023-04-18T16:47:24.343Z,12.60
2023-04-18T16:49:52.940Z,8.90
2023-04-18T16:52:22.141Z,5.70
2023-04-18T16:54:52.431Z,5.00
2023-04-18T16:57:21.007Z,4.80
2023-04-18T16:59:49.263Z,5.30
2023-04-18T17:02:17.694Z,5.40
2023-04-18T17:04:46.264Z,8.60
2023-04-18T17:07:14.520Z,9.50
2023-04-18T17:09:44.709Z,8.90
2023-04-18T17:12:14.583Z,17.90
2023-04-18T17:14:42.763Z,14.30
2023-04-18T17:17:11.020Z,10.90
2023-04-18T17:19:40.382Z,9.10
2023-04-18T17:22:08.655Z,8.00
2023-04-18T17:24:36.960Z,6.20
2023-04-18T17:27:05.103Z,7.70
2023-04-18T17:29:33.571Z,8.10
2023-04-18T17:32:02.165Z,8.60
2023-04-18T17:34:31.029Z,9.20
2023-04-18T17:36:59.299Z,8.80
2023-04-18T17:39:27.701Z,8.00
2023-04-18T17:41:56.006Z,8.70
2023-04-18T17:44:24.266Z,8.20
2023-04-18T17:46:52.651Z,14.00
2023-04-18T17:49:21.394Z,16.10
2023-04-18T17:51:49.645Z,30.80
2023-04-18T17:54:18.073Z,42.00
2023-04-18T17:56:46.395Z,43.10
2023-04-18T17:59:15.931Z,70.50
2023-04-18T18:01:45.007Z,73.00
2023-04-18T18:04:16.511Z,62.50
2023-04-18T18:06:54.322Z,48.00
2023-04-18T18:09:25.850Z,20.70
2023-04-18T18:11:55.939Z,13.10
2023-04-18T18:14:24.479Z,22.90
2023-04-18T18:16:52.922Z,20.80
2023-04-18T18:19:21.146Z,13.60
2023-04-18T18:21:49.420Z,10.20
2023-04-18T18:24:18.827Z,15.50
2023-04-18T18:26:47.714Z,13.10
2023-04-18T18:29:16.864Z,9.10
2023-04-18T18:31:45.525Z,8.00
2023-04-18T18:34:14.074Z,4.80
2023-04-18T18:36:42.494Z,3.90
2023-04-18T18:39:14.651Z,3.30
2023-04-18T18:41:43.617Z,3.50
2023-04-18T18:44:11.934Z,3.40
2023-04-18T18:46:41.510Z,3.20
2023-04-18T18:49:11.776Z,3.40
2023-04-18T18:51:41.356Z,3.20
2023-04-18T18:54:09.730Z,3.50
2023-04-18T18:56:39.840Z,3.50
2023-04-18T18:59:11.302Z,3.80
2023-04-18T19:01:39.838Z,3.50
2023-04-18T19:04:08.463Z,3.30
2023-04-18T19:06:37.082Z,3.90
2023-04-18T19:09:05.583Z,2.80
2023-04-18T19:11:34.520Z,2.90
2023-04-18T19:14:03.719Z,2.90
2023-04-18T19:16:34.111Z,3.00
2023-04-18T19:19:02.498Z,2.70
2023-04-18T19:21:33.552Z,3.00
2023-04-18T19:24:03.858Z,3.30
2023-04-18T19:26:33.009Z,3.00
2023-04-18T19:29:01.441Z,3.10
2023-04-18T19:31:32.491Z,3.30
2023-04-18T19:34:01.989Z,3.30
2023-04-18T19:36:32.052Z,3.00
2023-04-18T19:39:00.771Z,3.10
2023-04-18T19:41:29.312Z,3.60
2023-04-18T19:44:03.840Z,3.50
2023-04-18T19:46:33.063Z,3.50
2023-04-18T19:49:01.728Z,3.50
2023-04-18T19:51:30.128Z,3.60
2023-04-18T19:53:59.098Z,4.90
2023-04-18T19:56:46.732Z,4.70
2023-04-18T19:59:16.009Z,7.30
2023-04-18T20:01:44.720Z,6.20
2023-04-18T20:04:13.844Z,5.60
2023-04-18T20:06:46.951Z,5.80
2023-04-18T20:09:17.082Z,5.40
2023-04-18T20:11:48.768Z,5.60
2023-04-18T20:14:19.209Z,3.70
2023-04-18T20:16:50.121Z,3.60
2023-04-18T20:19:19.623Z,3.80
2023-04-18T20:21:48.969Z,3.30
2023-04-18T20:24:21.134Z,3.30
2023-04-18T20:26:51.571Z,3.60
2023-04-18T20:29:20.487Z,2.90
2023-04-18T20:31:48.821Z,3.00
2023-04-18T20:34:17.108Z,3.40
2023-04-18T20:36:46.628Z,3.20
2023-04-18T20:39:18.241Z,3.30
2023-04-18T20:41:50.946Z,3.10
2023-04-18T20:44:23.568Z,3.10
2023-04-18T20:46:54.955Z,3.50
2023-04-18T20:49:27.703Z,3.40
2023-04-18T20:51:56.329Z,3.20
2023-04-18T20:54:25.381Z,3.30
2023-04-18T20:56:56.676Z,3.40
2023-04-18T20:59:25.167Z,2.60
2023-04-18T21:01:53.510Z,2.80
2023-04-18T21:04:21.904Z,3.20
2023-04-18T21:06:50.779Z,2.80
2023-04-18T21:09:19.001Z,2.80
2023-04-18T21:11:47.276Z,2.80
2023-04-18T21:14:17.390Z,2.80
2023-04-18T21:16:46.307Z,2.70
2023-04-18T21:19:14.562Z,2.80
2023-04-18T21:21:42.827Z,2.80
2023-04-18T21:24:11.324Z,2.90
2023-04-18T21:26:39.853Z,2.70
2023-04-18T21:29:08.190Z,2.90
2023-04-18T21:31:38.262Z,3.90
2023-04-18T21:34:06.572Z,4.70
2023-04-18T21:36:35.175Z,3.90
2023-04-18T21:39:04.184Z,3.30
2023-04-18T21:41:32.934Z,3.20
2023-04-18T21:44:01.300Z,3.30
2023-04-18T21:46:29.733Z,3.10
2023-04-18T21:48:57.962Z,3.00
2023-04-18T21:51:27.316Z,2.80
2023-04-18T21:53:55.553Z,3.20
2023-04-18T21:56:23.711Z,3.20
2023-04-18T21:58:52.312Z,3.10
2023-04-18T22:01:20.542Z,4.10
2023-04-18T22:03:49.444Z,4.10
2023-04-18T22:06:18.083Z,4.00
2023-04-18T22:08:46.324Z,3.80
2023-04-18T22:11:15.757Z,3.40
2023-04-18T22:13:46.032Z,3.70
2023-04-18T22:16:14.301Z,4.80
2023-04-18T22:18:42.547Z,6.50
2023-04-18T22:21:10.865Z,7.80
2023-04-18T22:23:39.252Z,6.50
2023-04-18T22:26:15.128Z,5.10
2023-04-18T22:28:49.449Z,4.60
2023-04-18T22:31:22.577Z,4.00
2023-04-18T22:33:51.180Z,3.60
2023-04-18T22:36:19.372Z,3.40
2023-04-18T22:38:47.524Z,3.20
2023-04-18T22:41:15.860Z,3.50
2023-04-18T22:43:45.292Z,3.20
2023-04-18T22:46:13.556Z,4.30
2023-04-18T22:48:41.826Z,4.00
2023-04-18T22:51:11.195Z,6.10
2023-04-18T22:53:39.901Z,8.00
2023-04-18T22:56:08.140Z,8.50
2023-04-18T22:58:36.736Z,9.80
2023-04-18T23:01:05.086Z,8.60
2023-04-18T23:03:36.391Z,7.10
2023-04-18T23:06:07.495Z,6.90
2023-04-18T23:08:36.381Z,6.80
2023-04-18T23:11:04.609Z,6.70
2023-04-18T23:13:32.834Z,6.60
2023-04-18T23:16:01.082Z,5.40
2023-04-18T23:18:30.330Z,4.80
2023-04-18T23:21:00.032Z,4.20
2023-04-18T23:23:28.504Z,4.10
2023-04-18T23:25:56.972Z,4.10
2023-04-18T23:28:25.338Z,3.90
2023-04-18T23:30:53.507Z,3.40
2023-04-18T23:33:21.734Z,3.50
2023-04-18T23:35:49.932Z,3.30
2023-04-18T23:38:18.084Z,3.10
2023-04-18T23:40:46.304Z,3.30
2023-04-18T23:43:14.438Z,3.10
2023-04-18T23:45:42.545Z,3.60
2023-04-18T23:48:10.833Z,3.20
2023-04-18T23:50:48.303Z,3.50
2023-04-18T23:53:17.566Z,3.30
2023-04-18T23:55:46.917Z,3.90
2023-04-18T23:58:15.782Z,3.70
